sensor_id;sensor_type;location;lat;lon;timestamp;temperature;humidity
71096;DHT22;58753;49.440;11.126;2023-07-24T00:02:05;17.45;75.67
71096;DHT22;58753;49.440;11.126;2023-07-24T00:04:32;17.44;76.17
71096;DHT22;58753;49.440;11.126;2023-07-24T00:06:57;17.46;76.28
71096;DHT22;58753;49.440;11.126;2023-07-24T00:09:23;17.51;76.47
71096;DHT22;58753;49.440;11.126;2023-07-24T00:11:53;17.55;76.81
71096;DHT22;58753;49.440;11.126;2023-07-24T00:14:19;17.56;77.18
71096;DHT22;58753;49.440;11.126;2023-07-24T00:16:44;17.51;77.95
71096;DHT22;58753;49.440;11.126;2023-07-24T00:19:14;17.44;78.47
71096;DHT22;58753;49.440;11.126;2023-07-24T00:21:39;17.27;78.98
71096;DHT22;58753;49.440;11.126;2023-07-24T00:24:05;17.21;79.68
71096;DHT22;58753;49.440;11.126;2023-07-24T00:26:30;17.15;80.26
71096;DHT22;58753;49.440;11.126;2023-07-24T00:28:59;17.04;80.32
71096;DHT22;58753;49.440;11.126;2023-07-24T00:31:24;16.85;80.63
71096;DHT22;58753;49.440;11.126;2023-07-24T00:33:49;16.71;80.98
71096;DHT22;58753;49.440;11.126;2023-07-24T00:36:15;16.63;81.61
71096;DHT22;58753;49.440;11.126;2023-07-24T00:38:40;16.55;81.85
71096;DHT22;58753;49.440;11.126;2023-07-24T00:41:08;16.48;82.34
71096;DHT22;58753;49.440;11.126;2023-07-24T00:43:33;16.48;82.84
71096;DHT22;58753;49.440;11.126;2023-07-24T00:45:59;16.40;82.96
71096;DHT22;58753;49.440;11.126;2023-07-24T00:48:29;16.45;83.63
71096;DHT22;58753;49.440;11.126;2023-07-24T00:50:55;16.48;84.07
71096;DHT22;58753;49.440;11.126;2023-07-24T00:53:24;16.53;84.33
71096;DHT22;58753;49.440;11.126;2023-07-24T00:55:49;16.56;84.53
71096;DHT22;58753;49.440;11.126;2023-07-24T00:58:16;16.56;84.96
71096;DHT22;58753;49.440;11.126;2023-07-24T01:00:41;16.59;85.30
71096;DHT22;58753;49.440;11.126;2023-07-24T01:03:07;16.59;85.01
71096;DHT22;58753;49.440;11.126;2023-07-24T01:05:32;16.57;85.77
71096;DHT22;58753;49.440;11.126;2023-07-24T01:07:58;16.56;85.65
71096;DHT22;58753;49.440;11.126;2023-07-24T01:10:23;16.53;86.11
71096;DHT22;58753;49.440;11.126;2023-07-24T01:13:09;16.53;86.36
71096;DHT22;58753;49.440;11.126;2023-07-24T01:15:48;16.45;86.55
71096;DHT22;58753;49.440;11.126;2023-07-24T01:18:17;16.39;86.68
71096;DHT22;58753;49.440;11.126;2023-07-24T01:20:54;16.30;86.86
71096;DHT22;58753;49.440;11.126;2023-07-24T01:26:03;16.02;87.01
71096;DHT22;58753;49.440;11.126;2023-07-24T01:28:29;15.99;87.57
71096;DHT22;58753;49.440;11.126;2023-07-24T01:30:55;15.98;87.88
71096;DHT22;58753;49.440;11.126;2023-07-24T01:33:24;15.99;88.14
71096;DHT22;58753;49.440;11.126;2023-07-24T01:35:57;16.01;88.46
71096;DHT22;58753;49.440;11.126;2023-07-24T01:38:24;15.99;88.32
71096;DHT22;58753;49.440;11.126;2023-07-24T01:40:52;15.96;88.80
71096;DHT22;58753;49.440;11.126;2023-07-24T01:43:17;16.04;89.15
71096;DHT22;58753;49.440;11.126;2023-07-24T01:45:43;16.04;89.05
71096;DHT22;58753;49.440;11.126;2023-07-24T01:48:11;16.08;89.20
71096;DHT22;58753;49.440;11.126;2023-07-24T01:50:38;16.08;89.23
71096;DHT22;58753;49.440;11.126;2023-07-24T01:53:06;16.08;89.45
71096;DHT22;58753;49.440;11.126;2023-07-24T01:55:31;16.08;89.76
71096;DHT22;58753;49.440;11.126;2023-07-24T01:57:59;16.09;89.49
71096;DHT22;58753;49.440;11.126;2023-07-24T02:00:24;16.16;90.17
71096;DHT22;58753;49.440;11.126;2023-07-24T02:02:52;16.26;90.20
71096;DHT22;58753;49.440;11.126;2023-07-24T02:05:18;16.32;90.21
71096;DHT22;58753;49.440;11.126;2023-07-24T02:07:43;16.40;90.20
71096;DHT22;58753;49.440;11.126;2023-07-24T02:10:09;16.45;90.29
71096;DHT22;58753;49.440;11.126;2023-07-24T02:12:37;16.40;89.86
71096;DHT22;58753;49.440;11.126;2023-07-24T02:15:04;16.42;90.33
71096;DHT22;58753;49.440;11.126;2023-07-24T02:17:30;16.45;90.29
71096;DHT22;58753;49.440;11.126;2023-07-24T02:19:55;16.45;90.40
71096;DHT22;58753;49.440;11.126;2023-07-24T02:22:26;16.49;90.64
71096;DHT22;58753;49.440;11.126;2023-07-24T02:24:53;16.48;90.60
71096;DHT22;58753;49.440;11.126;2023-07-24T02:27:29;16.48;90.76
71096;DHT22;58753;49.440;11.126;2023-07-24T02:29:58;16.50;90.76
71096;DHT22;58753;49.440;11.126;2023-07-24T02:32:24;16.46;90.82
71096;DHT22;58753;49.440;11.126;2023-07-24T02:34:50;16.46;90.59
71096;DHT22;58753;49.440;11.126;2023-07-24T02:37:18;16.45;90.91
71096;DHT22;58753;49.440;11.126;2023-07-24T02:39:46;16.45;90.96
71096;DHT22;58753;49.440;11.126;2023-07-24T02:42:14;16.43;91.14
71096;DHT22;58753;49.440;11.126;2023-07-24T02:44:39;16.40;91.25
71096;DHT22;58753;49.440;11.126;2023-07-24T02:47:07;16.42;91.29
71096;DHT22;58753;49.440;11.126;2023-07-24T02:49:33;16.38;91.16
71096;DHT22;58753;49.440;11.126;2023-07-24T02:51:58;16.38;91.23
71096;DHT22;58753;49.440;11.126;2023-07-24T02:54:27;16.40;91.77
71096;DHT22;58753;49.440;11.126;2023-07-24T02:56:52;16.39;91.72
71096;DHT22;58753;49.440;11.126;2023-07-24T02:59:17;16.40;91.52
71096;DHT22;58753;49.440;11.126;2023-07-24T03:01:43;16.39;91.56
71096;DHT22;58753;49.440;11.126;2023-07-24T03:04:13;16.36;91.63
71096;DHT22;58753;49.440;11.126;2023-07-24T03:06:39;16.36;91.82
71096;DHT22;58753;49.440;11.126;2023-07-24T03:09:05;16.39;91.92
71096;DHT22;58753;49.440;11.126;2023-07-24T03:11:33;16.34;91.77
71096;DHT22;58753;49.440;11.126;2023-07-24T03:14:00;16.33;92.09
71096;DHT22;58753;49.440;11.126;2023-07-24T03:16:28;16.29;91.75
71096;DHT22;58753;49.440;11.126;2023-07-24T03:18:53;16.25;91.85
71096;DHT22;58753;49.440;11.126;2023-07-24T03:21:21;16.26;92.02
71096;DHT22;58753;49.440;11.126;2023-07-24T03:23:46;16.26;91.96
71096;DHT22;58753;49.440;11.126;2023-07-24T03:26:12;16.23;92.12
71096;DHT22;58753;49.440;11.126;2023-07-24T03:28:39;16.22;92.09
71096;DHT22;58753;49.440;11.126;2023-07-24T03:31:05;16.20;92.20
71096;DHT22;58753;49.440;11.126;2023-07-24T03:33:30;16.18;92.28
71096;DHT22;58753;49.440;11.126;2023-07-24T03:35:55;16.15;92.24
71096;DHT22;58753;49.440;11.126;2023-07-24T03:38:21;16.16;92.35
71096;DHT22;58753;49.440;11.126;2023-07-24T03:40:46;16.19;92.61
71096;DHT22;58753;49.440;11.126;2023-07-24T03:43:14;16.18;92.44
71096;DHT22;58753;49.440;11.126;2023-07-24T03:45:42;16.18;92.55
71096;DHT22;58753;49.440;11.126;2023-07-24T03:48:09;16.18;92.50
71096;DHT22;58753;49.440;11.126;2023-07-24T03:50:34;16.18;92.54
71096;DHT22;58753;49.440;11.126;2023-07-24T03:52:59;16.15;92.42
71096;DHT22;58753;49.440;11.126;2023-07-24T03:55:25;16.12;92.58
71096;DHT22;58753;49.440;11.126;2023-07-24T03:57:50;16.08;92.55
71096;DHT22;58753;49.440;11.126;2023-07-24T04:00:16;16.09;92.69
71096;DHT22;58753;49.440;11.126;2023-07-24T04:02:41;16.04;92.63
71096;DHT22;58753;49.440;11.126;2023-07-24T04:05:07;16.01;92.51
71096;DHT22;58753;49.440;11.126;2023-07-24T04:07:32;15.95;92.59
71096;DHT22;58753;49.440;11.126;2023-07-24T04:09:57;15.92;92.75
71096;DHT22;58753;49.440;11.126;2023-07-24T04:12:23;15.89;92.79
71096;DHT22;58753;49.440;11.126;2023-07-24T04:14:53;15.88;92.80
71096;DHT22;58753;49.440;11.126;2023-07-24T04:17:18;15.81;92.61
71096;DHT22;58753;49.440;11.126;2023-07-24T04:19:44;15.82;92.80
71096;DHT22;58753;49.440;11.126;2023-07-24T04:22:09;15.85;92.86
71096;DHT22;58753;49.440;11.126;2023-07-24T04:24:34;15.82;93.03
71096;DHT22;58753;49.440;11.126;2023-07-24T04:27:02;15.89;93.14
71096;DHT22;58753;49.440;11.126;2023-07-24T04:29:33;15.92;93.05
71096;DHT22;58753;49.440;11.126;2023-07-24T04:31:58;15.91;93.10
71096;DHT22;58753;49.440;11.126;2023-07-24T04:34:26;15.95;93.15
71096;DHT22;58753;49.440;11.126;2023-07-24T04:36:51;15.94;93.23
71096;DHT22;58753;49.440;11.126;2023-07-24T04:39:16;15.91;92.98
71096;DHT22;58753;49.440;11.126;2023-07-24T04:41:42;15.91;93.07
71096;DHT22;58753;49.440;11.126;2023-07-24T04:44:07;15.98;93.25
71096;DHT22;58753;49.440;11.126;2023-07-24T04:46:37;16.01;93.42
71096;DHT22;58753;49.440;11.126;2023-07-24T04:49:05;16.01;93.15
71096;DHT22;58753;49.440;11.126;2023-07-24T04:51:33;16.04;93.27
71096;DHT22;58753;49.440;11.126;2023-07-24T04:54:00;16.04;93.25
71096;DHT22;58753;49.440;11.126;2023-07-24T04:56:28;16.06;93.19
71096;DHT22;58753;49.440;11.126;2023-07-24T04:58:54;16.09;93.40
71096;DHT22;58753;49.440;11.126;2023-07-24T05:01:21;16.18;93.39
71096;DHT22;58753;49.440;11.126;2023-07-24T05:03:47;16.18;93.34
71096;DHT22;58753;49.440;11.126;2023-07-24T05:06:12;16.26;93.65
71096;DHT22;58753;49.440;11.126;2023-07-24T05:08:37;16.34;93.70
71096;DHT22;58753;49.440;11.126;2023-07-24T05:11:05;16.38;93.40
71096;DHT22;58753;49.440;11.126;2023-07-24T05:13:31;16.42;93.41
71096;DHT22;58753;49.440;11.126;2023-07-24T05:16:01;16.40;93.28
71096;DHT22;58753;49.440;11.126;2023-07-24T05:18:26;16.43;93.35
71096;DHT22;58753;49.440;11.126;2023-07-24T05:20:51;16.45;93.52
71096;DHT22;58753;49.440;11.126;2023-07-24T05:23:19;16.49;93.48
71096;DHT22;58753;49.440;11.126;2023-07-24T05:25:44;16.50;93.45
71096;DHT22;58753;49.440;11.126;2023-07-24T05:28:10;16.53;93.48
71096;DHT22;58753;49.440;11.126;2023-07-24T05:30:35;16.55;93.47
71096;DHT22;58753;49.440;11.126;2023-07-24T05:33:06;16.59;93.54
71096;DHT22;58753;49.440;11.126;2023-07-24T05:35:31;16.63;93.44
71096;DHT22;58753;49.440;11.126;2023-07-24T05:37:59;16.67;93.48
71096;DHT22;58753;49.440;11.126;2023-07-24T05:40:27;16.70;93.40
71096;DHT22;58753;49.440;11.126;2023-07-24T05:42:53;16.74;93.44
71096;DHT22;58753;49.440;11.126;2023-07-24T05:45:21;16.80;93.40
71096;DHT22;58753;49.440;11.126;2023-07-24T05:47:46;16.85;93.34
71096;DHT22;58753;49.440;11.126;2023-07-24T05:50:11;16.93;93.27
71096;DHT22;58753;49.440;11.126;2023-07-24T05:52:41;16.97;93.27
71096;DHT22;58753;49.440;11.126;2023-07-24T05:55:07;17.01;93.29
71096;DHT22;58753;49.440;11.126;2023-07-24T05:57:35;17.14;93.31
71096;DHT22;58753;49.440;11.126;2023-07-24T06:00:00;17.18;93.26
71096;DHT22;58753;49.440;11.126;2023-07-24T06:02:26;17.24;93.15
71096;DHT22;58753;49.440;11.126;2023-07-24T06:04:51;17.27;92.98
71096;DHT22;58753;49.440;11.126;2023-07-24T06:07:16;17.28;92.93
71096;DHT22;58753;49.440;11.126;2023-07-24T06:09:42;17.28;92.99
71096;DHT22;58753;49.440;11.126;2023-07-24T06:12:07;17.35;93.12
71096;DHT22;58753;49.440;11.126;2023-07-24T06:14:32;17.42;92.98
71096;DHT22;58753;49.440;11.126;2023-07-24T06:16:58;17.39;92.54
71096;DHT22;58753;49.440;11.126;2023-07-24T06:19:23;17.39;92.61
71096;DHT22;58753;49.440;11.126;2023-07-24T06:21:53;17.39;92.68
71096;DHT22;58753;49.440;11.126;2023-07-24T06:24:21;17.39;92.64
71096;DHT22;58753;49.440;11.126;2023-07-24T06:26:49;17.41;92.69
71096;DHT22;58753;49.440;11.126;2023-07-24T06:29:14;17.44;92.50
71096;DHT22;58753;49.440;11.126;2023-07-24T06:31:42;17.42;92.45
71096;DHT22;58753;49.440;11.126;2023-07-24T06:34:07;17.41;92.50
71096;DHT22;58753;49.440;11.126;2023-07-24T06:36:33;17.48;92.60
71096;DHT22;58753;49.440;11.126;2023-07-24T06:39:00;17.51;92.56
71096;DHT22;58753;49.440;11.126;2023-07-24T06:41:26;17.59;92.68
71096;DHT22;58753;49.440;11.126;2023-07-24T06:43:51;17.65;92.72
71096;DHT22;58753;49.440;11.126;2023-07-24T06:46:17;17.74;92.83
71096;DHT22;58753;49.440;11.126;2023-07-24T06:48:45;17.83;92.81
71096;DHT22;58753;49.440;11.126;2023-07-24T06:51:10;17.87;92.60
71096;DHT22;58753;49.440;11.126;2023-07-24T06:53:37;17.95;92.67
71096;DHT22;58753;49.440;11.126;2023-07-24T06:56:03;18.03;92.65
71096;DHT22;58753;49.440;11.126;2023-07-24T06:58:31;18.13;92.55
71096;DHT22;58753;49.440;11.126;2023-07-24T07:00:56;18.17;92.32
71096;DHT22;58753;49.440;11.126;2023-07-24T07:03:22;18.20;92.26
71096;DHT22;58753;49.440;11.126;2023-07-24T07:05:47;18.23;92.10
71096;DHT22;58753;49.440;11.126;2023-07-24T07:08:12;18.30;92.29
71096;DHT22;58753;49.440;11.126;2023-07-24T07:10:38;18.37;92.22
71096;DHT22;58753;49.440;11.126;2023-07-24T07:13:03;18.50;92.34
71096;DHT22;58753;49.440;11.126;2023-07-24T07:15:29;18.64;92.28
71096;DHT22;58753;49.440;11.126;2023-07-24T07:17:54;18.74;91.97
71096;DHT22;58753;49.440;11.126;2023-07-24T07:20:22;18.80;91.74
71096;DHT22;58753;49.440;11.126;2023-07-24T07:22:47;18.88;91.64
71096;DHT22;58753;49.440;11.126;2023-07-24T07:25:15;18.98;91.21
71096;DHT22;58753;49.440;11.126;2023-07-24T07:27:40;19.11;91.29
71096;DHT22;58753;49.440;11.126;2023-07-24T07:30:06;19.16;91.07
71096;DHT22;58753;49.440;11.126;2023-07-24T07:32:34;19.23;90.85
71096;DHT22;58753;49.440;11.126;2023-07-24T07:34:59;19.32;90.57
71096;DHT22;58753;49.440;11.126;2023-07-24T07:37:30;19.36;89.75
71096;DHT22;58753;49.440;11.126;2023-07-24T07:39:56;19.41;89.21
71096;DHT22;58753;49.440;11.126;2023-07-24T07:42:21;19.52;89.19
71096;DHT22;58753;49.440;11.126;2023-07-24T07:44:47;19.53;89.08
71096;DHT22;58753;49.440;11.126;2023-07-24T07:47:12;19.63;88.81
71096;DHT22;58753;49.440;11.126;2023-07-24T07:49:37;19.65;88.17
71096;DHT22;58753;49.440;11.126;2023-07-24T07:52:04;19.72;87.82
71096;DHT22;58753;49.440;11.126;2023-07-24T07:54:29;19.80;87.86
71096;DHT22;58753;49.440;11.126;2023-07-24T07:56:56;19.84;87.47
71096;DHT22;58753;49.440;11.126;2023-07-24T07:59:21;19.89;87.29
71096;DHT22;58753;49.440;11.126;2023-07-24T08:01:49;19.98;87.26
71096;DHT22;58753;49.440;11.126;2023-07-24T08:04:14;20.10;87.07
71096;DHT22;58753;49.440;11.126;2023-07-24T08:06:43;20.18;86.83
71096;DHT22;58753;49.440;11.126;2023-07-24T08:09:13;20.20;86.62
71096;DHT22;58753;49.440;11.126;2023-07-24T08:11:39;20.26;86.43
71096;DHT22;58753;49.440;11.126;2023-07-24T08:14:05;20.27;86.05
71096;DHT22;58753;49.440;11.126;2023-07-24T08:16:30;20.33;86.00
71096;DHT22;58753;49.440;11.126;2023-07-24T08:18:55;20.36;85.86
71096;DHT22;58753;49.440;11.126;2023-07-24T08:21:21;20.44;85.84
71096;DHT22;58753;49.440;11.126;2023-07-24T08:23:46;20.47;85.37
71096;DHT22;58753;49.440;11.126;2023-07-24T08:26:14;20.55;85.35
71096;DHT22;58753;49.440;11.126;2023-07-24T08:28:42;20.65;84.80
71096;DHT22;58753;49.440;11.126;2023-07-24T08:31:09;20.68;84.47
71096;DHT22;58753;49.440;11.126;2023-07-24T08:33:37;20.77;84.21
71096;DHT22;58753;49.440;11.126;2023-07-24T08:36:07;20.84;83.78
71096;DHT22;58753;49.440;11.126;2023-07-24T08:38:33;20.91;83.55
71096;DHT22;58753;49.440;11.126;2023-07-24T08:41:06;20.99;83.51
71096;DHT22;58753;49.440;11.126;2023-07-24T08:43:33;21.08;83.29
71096;DHT22;58753;49.440;11.126;2023-07-24T08:46:02;21.22;83.09
71096;DHT22;58753;49.440;11.126;2023-07-24T08:48:33;21.36;82.72
71096;DHT22;58753;49.440;11.126;2023-07-24T08:51:02;21.46;82.44
71096;DHT22;58753;49.440;11.126;2023-07-24T08:53:31;21.60;81.98
71096;DHT22;58753;49.440;11.126;2023-07-24T08:56:02;21.69;81.34
71096;DHT22;58753;49.440;11.126;2023-07-24T08:58:30;21.80;80.93
71096;DHT22;58753;49.440;11.126;2023-07-24T09:00:57;21.87;80.52
71096;DHT22;58753;49.440;11.126;2023-07-24T09:03:22;21.91;79.42
71096;DHT22;58753;49.440;11.126;2023-07-24T09:05:50;21.98;78.91
71096;DHT22;58753;49.440;11.126;2023-07-24T09:08:16;22.07;78.49
71096;DHT22;58753;49.440;11.126;2023-07-24T09:10:41;22.14;77.77
71096;DHT22;58753;49.440;11.126;2023-07-24T09:13:12;22.17;77.50
71096;DHT22;58753;49.440;11.126;2023-07-24T09:15:43;22.27;76.68
71096;DHT22;58753;49.440;11.126;2023-07-24T09:18:09;22.33;75.48
71096;DHT22;58753;49.440;11.126;2023-07-24T09:20:42;22.45;75.09
71096;DHT22;58753;49.440;11.126;2023-07-24T09:23:08;22.55;74.08
71096;DHT22;58753;49.440;11.126;2023-07-24T09:25:35;22.68;73.33
71096;DHT22;58753;49.440;11.126;2023-07-24T09:28:11;22.75;71.76
71096;DHT22;58753;49.440;11.126;2023-07-24T09:30:38;22.82;71.55
71096;DHT22;58753;49.440;11.126;2023-07-24T09:33:07;22.98;70.66
71096;DHT22;58753;49.440;11.126;2023-07-24T09:35:43;23.06;70.08
71096;DHT22;58753;49.440;11.126;2023-07-24T09:38:14;23.19;70.04
71096;DHT22;58753;49.440;11.126;2023-07-24T09:40:45;23.40;69.87
71096;DHT22;58753;49.440;11.126;2023-07-24T09:43:22;23.56;69.59
71096;DHT22;58753;49.440;11.126;2023-07-24T09:45:49;23.68;68.54
71096;DHT22;58753;49.440;11.126;2023-07-24T09:48:16;23.84;68.19
71096;DHT22;58753;49.440;11.126;2023-07-24T09:50:48;24.01;68.51
71096;DHT22;58753;49.440;11.126;2023-07-24T09:56:12;24.02;66.63
71096;DHT22;58753;49.440;11.126;2023-07-24T09:58:43;23.96;65.96
71096;DHT22;58753;49.440;11.126;2023-07-24T10:01:09;23.93;65.96
71096;DHT22;58753;49.440;11.126;2023-07-24T10:03:38;23.90;65.96
71096;DHT22;58753;49.440;11.126;2023-07-24T10:06:04;23.82;64.62
71096;DHT22;58753;49.440;11.126;2023-07-24T10:08:30;23.94;65.91
71096;DHT22;58753;49.440;11.126;2023-07-24T10:10:58;23.90;64.68
71096;DHT22;58753;49.440;11.126;2023-07-24T10:13:26;23.90;64.49
71096;DHT22;58753;49.440;11.126;2023-07-24T10:15:51;23.90;64.28
71096;DHT22;58753;49.440;11.126;2023-07-24T10:18:27;23.88;63.21
71096;DHT22;58753;49.440;11.126;2023-07-24T10:21:07;23.84;62.60
71096;DHT22;58753;49.440;11.126;2023-07-24T10:23:41;23.73;61.49
71096;DHT22;58753;49.440;11.126;2023-07-24T10:26:07;23.73;63.11
71096;DHT22;58753;49.440;11.126;2023-07-24T10:28:38;23.74;63.19
71096;DHT22;58753;49.440;11.126;2023-07-24T10:31:08;23.70;63.08
71096;DHT22;58753;49.440;11.126;2023-07-24T10:33:46;23.67;62.42
71096;DHT22;58753;49.440;11.126;2023-07-24T10:36:16;23.64;62.72
71096;DHT22;58753;49.440;11.126;2023-07-24T10:38:51;23.53;62.02
71096;DHT22;58753;49.440;11.126;2023-07-24T10:41:16;23.49;62.89
71096;DHT22;58753;49.440;11.126;2023-07-24T10:43:50;23.49;63.29
71096;DHT22;58753;49.440;11.126;2023-07-24T10:46:20;23.43;62.79
71096;DHT22;58753;49.440;11.126;2023-07-24T10:48:47;23.39;63.27
71096;DHT22;58753;49.440;11.126;2023-07-24T10:51:16;23.40;64.45
71096;DHT22;58753;49.440;11.126;2023-07-24T10:53:47;23.31;64.68
71096;DHT22;58753;49.440;11.126;2023-07-24T10:56:16;23.17;65.01
71096;DHT22;58753;49.440;11.126;2023-07-24T10:58:42;23.05;64.91
71096;DHT22;58753;49.440;11.126;2023-07-24T11:01:10;22.96;65.46
71096;DHT22;58753;49.440;11.126;2023-07-24T11:03:40;22.81;66.09
71096;DHT22;58753;49.440;11.126;2023-07-24T11:06:12;22.69;67.37
71096;DHT22;58753;49.440;11.126;2023-07-24T11:08:38;22.61;68.54
71096;DHT22;58753;49.440;11.126;2023-07-24T11:11:08;22.47;69.41
71096;DHT22;58753;49.440;11.126;2023-07-24T11:13:33;22.33;70.03
71096;DHT22;58753;49.440;11.126;2023-07-24T11:16:06;22.17;70.73
71096;DHT22;58753;49.440;11.126;2023-07-24T11:18:44;22.05;71.70
71096;DHT22;58753;49.440;11.126;2023-07-24T11:21:12;21.98;72.43
71096;DHT22;58753;49.440;11.126;2023-07-24T11:23:44;21.87;73.03
71096;DHT22;58753;49.440;11.126;2023-07-24T11:26:10;21.77;73.46
71096;DHT22;58753;49.440;11.126;2023-07-24T11:28:39;21.73;74.13
71096;DHT22;58753;49.440;11.126;2023-07-24T11:31:05;21.70;74.66
71096;DHT22;58753;49.440;11.126;2023-07-24T11:33:31;21.69;75.08
71096;DHT22;58753;49.440;11.126;2023-07-24T11:35:57;21.67;75.38
71096;DHT22;58753;49.440;11.126;2023-07-24T11:38:24;21.67;75.78
71096;DHT22;58753;49.440;11.126;2023-07-24T11:40:50;21.73;75.93
71096;DHT22;58753;49.440;11.126;2023-07-24T11:43:17;21.73;75.87
71096;DHT22;58753;49.440;11.126;2023-07-24T11:45:43;21.77;75.99
71096;DHT22;58753;49.440;11.126;2023-07-24T11:48:12;21.73;76.02
71096;DHT22;58753;49.440;11.126;2023-07-24T11:50:47;21.79;75.93
71096;DHT22;58753;49.440;11.126;2023-07-24T11:53:22;21.77;75.96
71096;DHT22;58753;49.440;11.126;2023-07-24T11:55:49;21.80;76.08
71096;DHT22;58753;49.440;11.126;2023-07-24T11:58:16;21.84;75.88
71096;DHT22;58753;49.440;11.126;2023-07-24T12:00:42;21.87;74.64
71096;DHT22;58753;49.440;11.126;2023-07-24T12:03:07;21.86;71.27
71096;DHT22;58753;49.440;11.126;2023-07-24T12:05:42;21.98;70.03
71096;DHT22;58753;49.440;11.126;2023-07-24T12:08:08;22.11;69.22
71096;DHT22;58753;49.440;11.126;2023-07-24T12:10:39;22.20;68.11
71096;DHT22;58753;49.440;11.126;2023-07-24T12:13:05;22.22;66.20
71096;DHT22;58753;49.440;11.126;2023-07-24T12:15:33;22.28;65.85
71096;DHT22;58753;49.440;11.126;2023-07-24T12:18:02;22.35;65.00
71096;DHT22;58753;49.440;11.126;2023-07-24T12:20:28;22.43;65.28
71096;DHT22;58753;49.440;11.126;2023-07-24T12:22:54;22.44;64.62
71096;DHT22;58753;49.440;11.126;2023-07-24T12:25:20;22.47;64.90
71096;DHT22;58753;49.440;11.126;2023-07-24T12:27:46;22.51;64.84
71096;DHT22;58753;49.440;11.126;2023-07-24T12:30:12;22.54;64.47
71096;DHT22;58753;49.440;11.126;2023-07-24T12:32:40;22.52;64.02
71096;DHT22;58753;49.440;11.126;2023-07-24T12:35:07;22.58;63.21
71096;DHT22;58753;49.440;11.126;2023-07-24T12:37:32;22.59;63.05
71096;DHT22;58753;49.440;11.126;2023-07-24T12:39:58;22.62;63.56
71096;DHT22;58753;49.440;11.126;2023-07-24T12:42:23;22.61;63.21
71096;DHT22;58753;49.440;11.126;2023-07-24T12:44:49;22.58;62.95
71096;DHT22;58753;49.440;11.126;2023-07-24T12:47:14;22.58;63.01
71096;DHT22;58753;49.440;11.126;2023-07-24T12:49:40;22.58;62.93
71096;DHT22;58753;49.440;11.126;2023-07-24T12:52:06;22.55;63.05
71096;DHT22;58753;49.440;11.126;2023-07-24T12:54:32;22.51;63.28
71096;DHT22;58753;49.440;11.126;2023-07-24T12:57:00;22.54;63.60
71096;DHT22;58753;49.440;11.126;2023-07-24T12:59:28;22.56;63.99
71096;DHT22;58753;49.440;11.126;2023-07-24T13:01:58;22.56;65.01
71096;DHT22;58753;49.440;11.126;2023-07-24T13:04:24;22.51;65.43
71096;DHT22;58753;49.440;11.126;2023-07-24T13:06:49;22.48;66.03
71096;DHT22;58753;49.440;11.126;2023-07-24T13:09:15;22.52;67.03
71096;DHT22;58753;49.440;11.126;2023-07-24T13:11:42;22.49;67.20
71096;DHT22;58753;49.440;11.126;2023-07-24T13:14:08;22.47;67.95
71096;DHT22;58753;49.440;11.126;2023-07-24T13:16:33;22.48;68.58
71096;DHT22;58753;49.440;11.126;2023-07-24T13:18:59;22.82;70.11
71096;DHT22;58753;49.440;11.126;2023-07-24T13:21:24;23.00;67.85
71096;DHT22;58753;49.440;11.126;2023-07-24T13:23:52;23.12;66.80
71096;DHT22;58753;49.440;11.126;2023-07-24T13:26:22;23.37;66.83
71096;DHT22;58753;49.440;11.126;2023-07-24T13:28:50;23.53;65.85
71096;DHT22;58753;49.440;11.126;2023-07-24T13:31:21;23.63;65.22
71096;DHT22;58753;49.440;11.126;2023-07-24T13:33:49;23.54;64.54
71096;DHT22;58753;49.440;11.126;2023-07-24T13:36:17;23.51;64.73
71096;DHT22;58753;49.440;11.126;2023-07-24T13:38:42;23.57;64.70
71096;DHT22;58753;49.440;11.126;2023-07-24T13:41:10;23.53;63.62
71096;DHT22;58753;49.440;11.126;2023-07-24T13:43:38;23.73;63.26
71096;DHT22;58753;49.440;11.126;2023-07-24T13:46:08;23.98;63.38
71096;DHT22;58753;49.440;11.126;2023-07-24T13:48:34;24.08;61.81
71096;DHT22;58753;49.440;11.126;2023-07-24T13:51:02;24.05;61.95
71096;DHT22;58753;49.440;11.126;2023-07-24T13:53:27;23.97;61.96
71096;DHT22;58753;49.440;11.126;2023-07-24T13:55:55;23.85;62.05
71096;DHT22;58753;49.440;11.126;2023-07-24T13:58:20;23.73;61.42
71096;DHT22;58753;49.440;11.126;2023-07-24T14:00:48;23.54;61.25
71096;DHT22;58753;49.440;11.126;2023-07-24T14:03:15;23.46;61.27
71096;DHT22;58753;49.440;11.126;2023-07-24T14:05:43;23.31;61.45
71096;DHT22;58753;49.440;11.126;2023-07-24T14:08:09;23.27;62.22
71096;DHT22;58753;49.440;11.126;2023-07-24T14:10:37;23.23;62.70
71096;DHT22;58753;49.440;11.126;2023-07-24T14:13:04;23.22;62.84
71096;DHT22;58753;49.440;11.126;2023-07-24T14:15:30;23.24;62.24
71096;DHT22;58753;49.440;11.126;2023-07-24T14:17:55;23.22;61.67
71096;DHT22;58753;49.440;11.126;2023-07-24T14:20:21;23.20;62.00
71096;DHT22;58753;49.440;11.126;2023-07-24T14:22:48;23.17;62.53
71096;DHT22;58753;49.440;11.126;2023-07-24T14:25:13;23.16;62.08
71096;DHT22;58753;49.440;11.126;2023-07-24T14:27:41;23.40;61.89
71096;DHT22;58753;49.440;11.126;2023-07-24T14:30:08;23.77;60.87
71096;DHT22;58753;49.440;11.126;2023-07-24T14:32:39;23.68;60.62
71096;DHT22;58753;49.440;11.126;2023-07-24T14:35:05;23.51;60.33
71096;DHT22;58753;49.440;11.126;2023-07-24T14:37:31;23.34;60.40
71096;DHT22;58753;49.440;11.126;2023-07-24T14:39:56;23.29;60.72
71096;DHT22;58753;49.440;11.126;2023-07-24T14:42:22;23.24;60.93
71096;DHT22;58753;49.440;11.126;2023-07-24T14:44:47;23.22;61.26
71096;DHT22;58753;49.440;11.126;2023-07-24T14:47:12;23.15;61.17
71096;DHT22;58753;49.440;11.126;2023-07-24T14:49:38;23.07;61.16
71096;DHT22;58753;49.440;11.126;2023-07-24T14:52:06;23.06;61.51
71096;DHT22;58753;49.440;11.126;2023-07-24T14:54:32;23.02;61.00
71096;DHT22;58753;49.440;11.126;2023-07-24T14:56:59;23.03;60.91
71096;DHT22;58753;49.440;11.126;2023-07-24T14:59:27;23.09;60.95
71096;DHT22;58753;49.440;11.126;2023-07-24T15:01:52;23.22;60.96
71096;DHT22;58753;49.440;11.126;2023-07-24T15:04:20;23.37;60.52
71096;DHT22;58753;49.440;11.126;2023-07-24T15:06:47;23.45;59.73
71096;DHT22;58753;49.440;11.126;2023-07-24T15:09:13;23.47;58.84
71096;DHT22;58753;49.440;11.126;2023-07-24T15:11:40;23.42;58.54
71096;DHT22;58753;49.440;11.126;2023-07-24T15:14:06;23.34;57.45
71096;DHT22;58753;49.440;11.126;2023-07-24T15:16:33;23.33;57.24
71096;DHT22;58753;49.440;11.126;2023-07-24T15:18:59;23.29;57.13
71096;DHT22;58753;49.440;11.126;2023-07-24T15:21:28;23.23;56.84